sensor_id;sensor_type;location;lat;lon;timestamp;pressure;altitude;pressure_sealevel;temperature;humidity
78485;BME280;67773;50.806;8.776;2023-06-04T00:02:02;99977.66;;;12.12;50.62
78485;BME280;67773;50.806;8.776;2023-06-04T00:04:28;99976.34;;;12.19;50.87
78485;BME280;67773;50.806;8.776;2023-06-04T00:06:54;99983.81;;;12.12;51.69
78485;BME280;67773;50.806;8.776;2023-06-04T00:09:19;99975.22;;;12.07;52.82
78485;BME280;67773;50.806;8.776;2023-06-04T00:11:44;99972.50;;;12.09;51.15
78485;BME280;67773;50.806;8.776;2023-06-04T00:14:11;99975.28;;;12.06;52.35
78485;BME280;67773;50.806;8.776;2023-06-04T00:16:36;99973.28;;;11.94;52.02
78485;BME280;67773;50.806;8.776;2023-06-04T00:19:02;99973.28;;;11.94;52.44
78485;BME280;67773;50.806;8.776;2023-06-04T00:21:28;99965.75;;;11.84;52.23
78485;BME280;67773;50.806;8.776;2023-06-04T00:23:53;99966.41;;;11.90;52.26
78485;BME280;67773;50.806;8.776;2023-06-04T00:26:18;99962.81;;;11.91;52.33
78485;BME280;67773;50.806;8.776;2023-06-04T00:28:44;99962.06;;;11.87;52.15
78485;BME280;67773;50.806;8.776;2023-06-04T00:31:09;99964.81;;;11.85;51.59
78485;BME280;67773;50.806;8.776;2023-06-04T00:33:38;99962.25;;;11.84;53.34
78485;BME280;67773;50.806;8.776;2023-06-04T00:36:03;99953.84;;;11.74;52.69
78485;BME280;67773;50.806;8.776;2023-06-04T00:38:29;99967.31;;;11.71;52.64
78485;BME280;67773;50.806;8.776;2023-06-04T00:40:54;99956.22;;;11.80;54.00
78485;BME280;67773;50.806;8.776;2023-06-04T00:43:19;99968.31;;;11.69;53.47
78485;BME280;67773;50.806;8.776;2023-06-04T00:45:45;99956.84;;;11.68;54.08
78485;BME280;67773;50.806;8.776;2023-06-04T00:48:10;99971.53;;;11.58;53.03
78485;BME280;67773;50.806;8.776;2023-06-04T00:50:36;99973.91;;;11.45;54.35
78485;BME280;67773;50.806;8.776;2023-06-04T00:53:04;99982.75;;;11.46;53.22
78485;BME280;67773;50.806;8.776;2023-06-04T00:55:30;99978.16;;;11.49;55.92
78485;BME280;67773;50.806;8.776;2023-06-04T00:57:56;99975.25;;;11.54;54.28
78485;BME280;67773;50.806;8.776;2023-06-04T01:00:22;99981.75;;;11.48;54.91
78485;BME280;67773;50.806;8.776;2023-06-04T01:02:48;99982.38;;;11.36;54.90
78485;BME280;67773;50.806;8.776;2023-06-04T01:05:43;99980.53;;;11.19;54.31
78485;BME280;67773;50.806;8.776;2023-06-04T01:08:13;99983.38;;;11.15;56.13
78485;BME280;67773;50.806;8.776;2023-06-04T01:10:50;99981.63;;;11.15;55.36
78485;BME280;67773;50.806;8.776;2023-06-04T01:13:16;99982.25;;;11.20;55.01
78485;BME280;67773;50.806;8.776;2023-06-04T01:15:41;99988.84;;;11.31;55.01
78485;BME280;67773;50.806;8.776;2023-06-04T01:18:07;99993.28;;;11.30;55.10
78485;BME280;67773;50.806;8.776;2023-06-04T01:20:34;99981.91;;;11.09;55.59
78485;BME280;67773;50.806;8.776;2023-06-04T01:23:19;99982.28;;;10.83;56.39
78485;BME280;67773;50.806;8.776;2023-06-04T01:25:52;99980.28;;;10.69;56.72
78485;BME280;67773;50.806;8.776;2023-06-04T01:28:19;99978.81;;;10.81;58.54
78485;BME280;67773;50.806;8.776;2023-06-04T01:30:46;99980.97;;;10.73;57.14
78485;BME280;67773;50.806;8.776;2023-06-04T01:33:17;99988.47;;;10.64;57.76
78485;BME280;67773;50.806;8.776;2023-06-04T01:35:43;99982.28;;;10.64;58.64
78485;BME280;67773;50.806;8.776;2023-06-04T01:38:10;99978.97;;;10.59;57.84
78485;BME280;67773;50.806;8.776;2023-06-04T01:40:35;99983.41;;;10.58;57.80
78485;BME280;67773;50.806;8.776;2023-06-04T01:43:01;99982.56;;;10.58;58.97
78485;BME280;67773;50.806;8.776;2023-06-04T01:45:27;99979.63;;;10.45;58.47
78485;BME280;67773;50.806;8.776;2023-06-04T01:47:53;99981.56;;;10.60;57.80
78485;BME280;67773;50.806;8.776;2023-06-04T01:50:18;99981.00;;;10.54;58.38
78485;BME280;67773;50.806;8.776;2023-06-04T01:52:44;99982.13;;;10.48;58.99
78485;BME280;67773;50.806;8.776;2023-06-04T01:55:12;99984.78;;;10.48;58.64
78485;BME280;67773;50.806;8.776;2023-06-04T01:57:38;99982.97;;;10.49;58.44
78485;BME280;67773;50.806;8.776;2023-06-04T02:00:05;99978.69;;;10.46;59.66
78485;BME280;67773;50.806;8.776;2023-06-04T02:02:35;99979.09;;;10.37;59.13
78485;BME280;67773;50.806;8.776;2023-06-04T02:05:07;99980.53;;;10.44;59.49
78485;BME280;67773;50.806;8.776;2023-06-04T02:07:37;99974.72;;;10.36;59.47
78485;BME280;67773;50.806;8.776;2023-06-04T02:10:08;99982.00;;;10.31;59.59
78485;BME280;67773;50.806;8.776;2023-06-04T02:12:36;99993.84;;;10.24;59.08
78485;BME280;67773;50.806;8.776;2023-06-04T02:15:01;99986.81;;;10.21;59.20
78485;BME280;67773;50.806;8.776;2023-06-04T02:17:27;99972.28;;;10.11;58.95
78485;BME280;67773;50.806;8.776;2023-06-04T02:19:53;99988.84;;;10.16;59.81
78485;BME280;67773;50.806;8.776;2023-06-04T02:22:19;99994.22;;;10.15;59.74
78485;BME280;67773;50.806;8.776;2023-06-04T02:24:46;99989.91;;;10.12;59.58
78485;BME280;67773;50.806;8.776;2023-06-04T02:27:13;99985.88;;;10.03;59.92
78485;BME280;67773;50.806;8.776;2023-06-04T02:29:41;99993.28;;;9.95;59.98
78485;BME280;67773;50.806;8.776;2023-06-04T02:32:07;99998.59;;;9.95;61.05
78485;BME280;67773;50.806;8.776;2023-06-04T02:34:33;99999.78;;;10.08;60.30
78485;BME280;67773;50.806;8.776;2023-06-04T02:37:02;100000.84;;;10.04;60.31
78485;BME280;67773;50.806;8.776;2023-06-04T02:39:28;100005.69;;;9.95;61.11
78485;BME280;67773;50.806;8.776;2023-06-04T02:41:53;99995.53;;;9.84;59.99
78485;BME280;67773;50.806;8.776;2023-06-04T02:44:19;99988.66;;;9.80;60.74
78485;BME280;67773;50.806;8.776;2023-06-04T02:46:44;100000.16;;;9.79;59.94
78485;BME280;67773;50.806;8.776;2023-06-04T02:49:10;99992.97;;;9.82;60.20
78485;BME280;67773;50.806;8.776;2023-06-04T02:51:40;99992.22;;;9.79;61.63
78485;BME280;67773;50.806;8.776;2023-06-04T02:54:05;99993.66;;;9.66;61.32
78485;BME280;67773;50.806;8.776;2023-06-04T02:56:31;99998.25;;;9.62;59.94
78485;BME280;67773;50.806;8.776;2023-06-04T02:58:56;100000.81;;;9.64;61.33
78485;BME280;67773;50.806;8.776;2023-06-04T03:01:26;100003.84;;;9.54;61.63
78485;BME280;67773;50.806;8.776;2023-06-04T03:03:52;100004.72;;;9.55;61.82
78485;BME280;67773;50.806;8.776;2023-06-04T03:06:19;99995.50;;;9.43;62.58
78485;BME280;67773;50.806;8.776;2023-06-04T03:08:46;100005.84;;;9.49;62.01
78485;BME280;67773;50.806;8.776;2023-06-04T03:11:12;100005.84;;;9.49;61.37
78485;BME280;67773;50.806;8.776;2023-06-04T03:13:38;100009.09;;;9.56;61.87
78485;BME280;67773;50.806;8.776;2023-06-04T03:16:04;100011.00;;;9.52;61.74
78485;BME280;67773;50.806;8.776;2023-06-04T03:18:34;100011.25;;;9.46;62.83
78485;BME280;67773;50.806;8.776;2023-06-04T03:21:01;100008.59;;;9.46;61.96
78485;BME280;67773;50.806;8.776;2023-06-04T03:23:27;100013.38;;;9.38;61.91
78485;BME280;67773;50.806;8.776;2023-06-04T03:25:52;100017.06;;;9.34;62.08
78485;BME280;67773;50.806;8.776;2023-06-04T03:28:17;100014.28;;;9.37;62.82
78485;BME280;67773;50.806;8.776;2023-06-04T03:30:42;100008.31;;;9.32;61.14
78485;BME280;67773;50.806;8.776;2023-06-04T03:33:08;100011.16;;;9.28;62.88
78485;BME280;67773;50.806;8.776;2023-06-04T03:35:33;100015.81;;;9.21;62.94
78485;BME280;67773;50.806;8.776;2023-06-04T03:37:59;100015.63;;;9.25;62.83
78485;BME280;67773;50.806;8.776;2023-06-04T03:40:25;100009.41;;;9.26;62.46
78485;BME280;67773;50.806;8.776;2023-06-04T03:42:50;100013.59;;;9.32;63.49
78485;BME280;67773;50.806;8.776;2023-06-04T03:45:15;100022.34;;;9.34;63.07
78485;BME280;67773;50.806;8.776;2023-06-04T03:47:41;100009.91;;;9.36;62.88
78485;BME280;67773;50.806;8.776;2023-06-04T03:50:06;100015.47;;;9.30;62.49
78485;BME280;67773;50.806;8.776;2023-06-04T03:52:32;100011.19;;;9.26;62.67
78485;BME280;67773;50.806;8.776;2023-06-04T03:54:58;99995.88;;;9.12;63.68
78485;BME280;67773;50.806;8.776;2023-06-04T03:57:23;100014.84;;;9.23;64.20
78485;BME280;67773;50.806;8.776;2023-06-04T03:59:49;100009.66;;;9.42;63.56
78485;BME280;67773;50.806;8.776;2023-06-04T04:02:15;100008.19;;;9.35;62.14
78485;BME280;67773;50.806;8.776;2023-06-04T04:04:42;100003.66;;;9.37;62.01
78485;BME280;67773;50.806;8.776;2023-06-04T04:07:07;100005.59;;;9.34;62.81
78485;BME280;67773;50.806;8.776;2023-06-04T04:09:32;100005.72;;;9.31;63.46
78485;BME280;67773;50.806;8.776;2023-06-04T04:11:58;100010.22;;;9.29;64.35
78485;BME280;67773;50.806;8.776;2023-06-04T04:14:23;100005.88;;;9.28;63.07
78485;BME280;67773;50.806;8.776;2023-06-04T04:16:48;100005.78;;;9.29;62.54
78485;BME280;67773;50.806;8.776;2023-06-04T04:19:14;100004.94;;;9.29;63.52
78485;BME280;67773;50.806;8.776;2023-06-04T04:21:39;100005.31;;;9.19;62.96
78485;BME280;67773;50.806;8.776;2023-06-04T04:24:05;99998.31;;;9.17;64.10
78485;BME280;67773;50.806;8.776;2023-06-04T04:26:30;100009.41;;;9.26;62.85
78485;BME280;67773;50.806;8.776;2023-06-04T04:28:55;100003.50;;;9.42;62.06
78485;BME280;67773;50.806;8.776;2023-06-04T04:31:26;100001.28;;;9.53;60.90
78485;BME280;67773;50.806;8.776;2023-06-04T04:33:52;100004.28;;;9.44;62.96
78485;BME280;67773;50.806;8.776;2023-06-04T04:36:17;99999.31;;;9.36;62.73
78485;BME280;67773;50.806;8.776;2023-06-04T04:38:44;100012.38;;;9.41;62.92
78485;BME280;67773;50.806;8.776;2023-06-04T04:41:10;100015.19;;;9.58;62.76
78485;BME280;67773;50.806;8.776;2023-06-04T04:43:37;100009.78;;;9.61;61.69
78485;BME280;67773;50.806;8.776;2023-06-04T04:46:04;100013.88;;;9.68;61.75
78485;BME280;67773;50.806;8.776;2023-06-04T04:48:29;99996.88;;;9.74;63.55
78485;BME280;67773;50.806;8.776;2023-06-04T04:50:55;99999.25;;;9.80;62.97
78485;BME280;67773;50.806;8.776;2023-06-04T04:53:20;100011.13;;;9.71;63.17
78485;BME280;67773;50.806;8.776;2023-06-04T04:55:45;100019.00;;;9.73;63.16
78485;BME280;67773;50.806;8.776;2023-06-04T04:58:12;100014.41;;;9.76;61.56
78485;BME280;67773;50.806;8.776;2023-06-04T05:00:37;100010.72;;;9.80;60.83
78485;BME280;67773;50.806;8.776;2023-06-04T05:03:02;100005.22;;;9.85;61.39
78485;BME280;67773;50.806;8.776;2023-06-04T05:05:28;100012.50;;;10.00;62.16
78485;BME280;67773;50.806;8.776;2023-06-04T05:07:53;100010.78;;;9.99;61.10
78485;BME280;67773;50.806;8.776;2023-06-04T05:10:18;100016.09;;;9.99;59.57
78485;BME280;67773;50.806;8.776;2023-06-04T05:12:59;100016.47;;;10.10;61.78
78485;BME280;67773;50.806;8.776;2023-06-04T05:15:26;100012.00;;;10.12;59.98
78485;BME280;67773;50.806;8.776;2023-06-04T05:17:52;100019.22;;;10.29;59.95
78485;BME280;67773;50.806;8.776;2023-06-04T05:20:18;100028.97;;;10.29;60.69
78485;BME280;67773;50.806;8.776;2023-06-04T05:22:44;100021.31;;;10.41;60.82
78485;BME280;67773;50.806;8.776;2023-06-04T05:25:10;100034.94;;;10.54;59.02
78485;BME280;67773;50.806;8.776;2023-06-04T05:27:36;100032.50;;;10.68;60.29
78485;BME280;67773;50.806;8.776;2023-06-04T05:30:02;100032.66;;;10.65;60.99
78485;BME280;67773;50.806;8.776;2023-06-04T05:32:28;100030.53;;;10.74;59.05
78485;BME280;67773;50.806;8.776;2023-06-04T05:34:54;100030.88;;;10.85;56.64
78485;BME280;67773;50.806;8.776;2023-06-04T05:37:22;100031.94;;;10.99;58.05
78485;BME280;67773;50.806;8.776;2023-06-04T05:39:51;100038.78;;;11.05;58.62
78485;BME280;67773;50.806;8.776;2023-06-04T05:42:17;100040.50;;;11.06;54.96
78485;BME280;67773;50.806;8.776;2023-06-04T05:44:42;100038.03;;;11.20;55.72
78485;BME280;67773;50.806;8.776;2023-06-04T05:47:07;100039.47;;;11.46;56.46
78485;BME280;67773;50.806;8.776;2023-06-04T05:49:35;100040.94;;;11.52;58.56
78485;BME280;67773;50.806;8.776;2023-06-04T05:52:01;100035.97;;;11.63;55.31
78485;BME280;67773;50.806;8.776;2023-06-04T05:54:26;100033.94;;;11.68;58.37
78485;BME280;67773;50.806;8.776;2023-06-04T05:56:52;100045.91;;;11.77;55.55
78485;BME280;67773;50.806;8.776;2023-06-04T05:59:17;100034.22;;;11.81;54.82
78485;BME280;67773;50.806;8.776;2023-06-04T06:01:42;100043.28;;;11.94;56.88
78485;BME280;67773;50.806;8.776;2023-06-04T06:04:08;100030.00;;;11.94;56.74
78485;BME280;67773;50.806;8.776;2023-06-04T06:06:34;100039.41;;;12.01;57.20
78485;BME280;67773;50.806;8.776;2023-06-04T06:09:00;100032.88;;;12.24;53.70
78485;BME280;67773;50.806;8.776;2023-06-04T06:11:25;100044.13;;;12.29;55.99
78485;BME280;67773;50.806;8.776;2023-06-04T06:13:52;100045.88;;;12.30;57.87
78485;BME280;67773;50.806;8.776;2023-06-04T06:16:17;100038.59;;;12.34;57.31
78485;BME280;67773;50.806;8.776;2023-06-04T06:18:43;100045.72;;;12.33;58.31
78485;BME280;67773;50.806;8.776;2023-06-04T06:21:08;100043.03;;;12.51;52.50
78485;BME280;67773;50.806;8.776;2023-06-04T06:23:34;100050.22;;;12.49;55.09
78485;BME280;67773;50.806;8.776;2023-06-04T06:25:59;100052.66;;;12.53;53.96
78485;BME280;67773;50.806;8.776;2023-06-04T06:28:27;100039.44;;;12.52;58.24
78485;BME280;67773;50.806;8.776;2023-06-04T06:30:52;100047.00;;;12.59;58.51
78485;BME280;67773;50.806;8.776;2023-06-04T06:33:17;100046.38;;;12.87;53.95
78485;BME280;67773;50.806;8.776;2023-06-04T06:35:47;100048.09;;;12.88;55.79
78485;BME280;67773;50.806;8.776;2023-06-04T06:38:12;100045.88;;;12.96;52.62
78485;BME280;67773;50.806;8.776;2023-06-04T06:40:38;100054.25;;;13.22;52.27
78485;BME280;67773;50.806;8.776;2023-06-04T06:43:03;100051.53;;;13.23;54.91
78485;BME280;67773;50.806;8.776;2023-06-04T06:45:28;100053.59;;;13.34;53.74
78485;BME280;67773;50.806;8.776;2023-06-04T06:47:53;100059.25;;;13.44;55.15
78485;BME280;67773;50.806;8.776;2023-06-04T06:50:19;100049.69;;;13.40;55.65
78485;BME280;67773;50.806;8.776;2023-06-04T06:52:44;100065.53;;;13.58;53.61
78485;BME280;67773;50.806;8.776;2023-06-04T06:55:09;100059.66;;;13.68;56.36
78485;BME280;67773;50.806;8.776;2023-06-04T06:57:35;100062.56;;;13.79;53.16
78485;BME280;67773;50.806;8.776;2023-06-04T07:00:00;100058.34;;;13.91;53.33
78485;BME280;67773;50.806;8.776;2023-06-04T07:02:26;100058.28;;;14.06;51.65
78485;BME280;67773;50.806;8.776;2023-06-04T07:04:51;100059.63;;;14.13;50.84
78485;BME280;67773;50.806;8.776;2023-06-04T07:07:16;100061.03;;;14.35;50.54
78485;BME280;67773;50.806;8.776;2023-06-04T07:09:42;100049.78;;;14.44;48.53
78485;BME280;67773;50.806;8.776;2023-06-04T07:12:07;100057.38;;;14.52;48.95
78485;BME280;67773;50.806;8.776;2023-06-04T07:14:32;100054.25;;;14.59;48.69
78485;BME280;67773;50.806;8.776;2023-06-04T07:16:58;100051.94;;;14.67;48.71
78485;BME280;67773;50.806;8.776;2023-06-04T07:19:23;100048.44;;;14.81;48.20
78485;BME280;67773;50.806;8.776;2023-06-04T07:21:50;100053.84;;;14.94;47.48
78485;BME280;67773;50.806;8.776;2023-06-04T07:24:15;100055.25;;;14.99;47.07
78485;BME280;67773;50.806;8.776;2023-06-04T07:26:40;100055.38;;;15.12;47.04
78485;BME280;67773;50.806;8.776;2023-06-04T07:29:06;100052.56;;;15.28;45.07
78485;BME280;67773;50.806;8.776;2023-06-04T07:31:31;100053.69;;;15.38;46.47
78485;BME280;67773;50.806;8.776;2023-06-04T07:33:57;100052.72;;;15.53;43.80
78485;BME280;67773;50.806;8.776;2023-06-04T07:36:22;100061.94;;;15.76;44.41
78485;BME280;67773;50.806;8.776;2023-06-04T07:38:47;100056.22;;;15.68;43.26
78485;BME280;67773;50.806;8.776;2023-06-04T07:41:13;100058.63;;;15.85;42.85
78485;BME280;67773;50.806;8.776;2023-06-04T07:43:38;100052.88;;;16.04;43.17
78485;BME280;67773;50.806;8.776;2023-06-04T07:46:04;100067.81;;;16.08;41.43
78485;BME280;67773;50.806;8.776;2023-06-04T07:48:30;100059.63;;;16.50;40.82
78485;BME280;67773;50.806;8.776;2023-06-04T07:51:02;100049.53;;;16.53;40.86
78485;BME280;67773;50.806;8.776;2023-06-04T07:53:29;100069.03;;;16.55;39.71
78485;BME280;67773;50.806;8.776;2023-06-04T07:55:55;100059.63;;;16.62;41.23
78485;BME280;67773;50.806;8.776;2023-06-04T07:58:21;100050.22;;;16.82;38.16
78485;BME280;67773;50.806;8.776;2023-06-04T08:00:46;100055.75;;;17.05;37.71
78485;BME280;67773;50.806;8.776;2023-06-04T08:03:12;100048.34;;;17.21;36.39
78485;BME280;67773;50.806;8.776;2023-06-04T08:05:37;100057.78;;;17.50;38.53
78485;BME280;67773;50.806;8.776;2023-06-04T08:08:03;100053.97;;;17.66;34.79
78485;BME280;67773;50.806;8.776;2023-06-04T08:10:29;100053.44;;;17.60;35.13
78485;BME280;67773;50.806;8.776;2023-06-04T08:12:55;100048.81;;;17.75;35.46
78485;BME280;67773;50.806;8.776;2023-06-04T08:15:20;100046.91;;;17.88;35.65
78485;BME280;67773;50.806;8.776;2023-06-04T08:17:45;100046.47;;;17.95;35.94
78485;BME280;67773;50.806;8.776;2023-06-04T08:20:11;100041.94;;;17.95;37.38
78485;BME280;67773;50.806;8.776;2023-06-04T08:22:36;100048.50;;;17.91;35.59
78485;BME280;67773;50.806;8.776;2023-06-04T08:25:02;100057.47;;;17.79;35.35
78485;BME280;67773;50.806;8.776;2023-06-04T08:27:28;100044.44;;;18.09;34.48
78485;BME280;67773;50.806;8.776;2023-06-04T08:29:54;100040.47;;;18.26;35.80
78485;BME280;67773;50.806;8.776;2023-06-04T08:32:19;100056.53;;;18.61;32.86
78485;BME280;67773;50.806;8.776;2023-06-04T08:34:44;100047.06;;;18.68;32.78
78485;BME280;67773;50.806;8.776;2023-06-04T08:37:10;100059.28;;;18.72;32.97
78485;BME280;67773;50.806;8.776;2023-06-04T08:39:35;100048.16;;;18.77;31.06
78485;BME280;67773;50.806;8.776;2023-06-04T08:42:04;100059.28;;;18.95;31.20
78485;BME280;67773;50.806;8.776;2023-06-04T08:44:33;100053.69;;;18.98;32.27
78485;BME280;67773;50.806;8.776;2023-06-04T08:47:04;100066.03;;;19.00;32.79
78485;BME280;67773;50.806;8.776;2023-06-04T08:49:31;100067.47;;;19.16;31.68
78485;BME280;67773;50.806;8.776;2023-06-04T08:51:59;100064.44;;;19.20;31.66
78485;BME280;67773;50.806;8.776;2023-06-04T08:54:25;100063.91;;;19.38;31.98
78485;BME280;67773;50.806;8.776;2023-06-04T08:56:51;100068.41;;;19.48;31.47
78485;BME280;67773;50.806;8.776;2023-06-04T08:59:17;100063.66;;;19.52;32.13
78485;BME280;67773;50.806;8.776;2023-06-04T09:01:44;100062.94;;;19.50;31.57
78485;BME280;67773;50.806;8.776;2023-06-04T09:04:10;100067.56;;;19.59;30.93
78485;BME280;67773;50.806;8.776;2023-06-04T09:06:37;100064.56;;;19.84;31.66
78485;BME280;67773;50.806;8.776;2023-06-04T09:09:08;100071.66;;;20.17;30.22
78485;BME280;67773;50.806;8.776;2023-06-04T09:11:49;100066.69;;;20.34;30.82
78485;BME280;67773;50.806;8.776;2023-06-04T09:14:15;100061.84;;;20.69;29.81
78485;BME280;67773;50.806;8.776;2023-06-04T09:16:48;100063.50;;;20.91;31.20
78485;BME280;67773;50.806;8.776;2023-06-04T09:19:15;100053.81;;;21.10;28.76
78485;BME280;67773;50.806;8.776;2023-06-04T09:21:55;100062.03;;;21.39;29.34
78485;BME280;67773;50.806;8.776;2023-06-04T09:24:22;100057.56;;;21.68;29.78
78485;BME280;67773;50.806;8.776;2023-06-04T09:26:49;100053.44;;;21.93;28.69
78485;BME280;67773;50.806;8.776;2023-06-04T09:29:15;100050.19;;;21.80;28.21
78485;BME280;67773;50.806;8.776;2023-06-04T09:31:41;100050.66;;;22.14;28.40
78485;BME280;67773;50.806;8.776;2023-06-04T09:34:06;100037.22;;;22.51;27.69
78485;BME280;67773;50.806;8.776;2023-06-04T09:36:33;100042.88;;;22.67;28.75
78485;BME280;67773;50.806;8.776;2023-06-04T09:39:00;100049.53;;;23.20;26.90
78485;BME280;67773;50.806;8.776;2023-06-04T09:41:26;100050.66;;;24.00;26.57
78485;BME280;67773;50.806;8.776;2023-06-04T09:44:02;100034.53;;;28.10;20.71
78485;BME280;67773;50.806;8.776;2023-06-04T09:46:31;100028.72;;;31.99;18.95
78485;BME280;67773;50.806;8.776;2023-06-04T09:49:04;100028.97;;;33.68;15.01
78485;BME280;67773;50.806;8.776;2023-06-04T09:51:30;100029.22;;;35.41;14.31
78485;BME280;67773;50.806;8.776;2023-06-04T09:53:58;100034.75;;;36.85;12.46
78485;BME280;67773;50.806;8.776;2023-06-04T09:56:24;100033.78;;;37.03;12.28
78485;BME280;67773;50.806;8.776;2023-06-04T09:58:49;100034.47;;;37.21;11.33
78485;BME280;67773;50.806;8.776;2023-06-04T10:01:19;100028.75;;;37.51;11.72
78485;BME280;67773;50.806;8.776;2023-06-04T10:03:47;100018.84;;;36.80;12.08
78485;BME280;67773;50.806;8.776;2023-06-04T10:06:15;100022.09;;;37.76;11.78
78485;BME280;67773;50.806;8.776;2023-06-04T10:08:43;100026.81;;;36.88;12.15
78485;BME280;67773;50.806;8.776;2023-06-04T10:11:11;100015.31;;;37.83;12.95
78485;BME280;67773;50.806;8.776;2023-06-04T10:16:09;100022.31;;;38.20;14.27
78485;BME280;67773;50.806;8.776;2023-06-04T10:18:36;100014.09;;;39.74;10.56
78485;BME280;67773;50.806;8.776;2023-06-04T10:21:02;100007.69;;;39.08;9.99
78485;BME280;67773;50.806;8.776;2023-06-04T10:23:28;100012.88;;;39.21;10.47
78485;BME280;67773;50.806;8.776;2023-06-04T10:25:54;100010.47;;;38.91;10.36
78485;BME280;67773;50.806;8.776;2023-06-04T10:28:22;100005.47;;;39.10;9.17
78485;BME280;67773;50.806;8.776;2023-06-04T10:30:48;100000.09;;;38.48;10.13
78485;BME280;67773;50.806;8.776;2023-06-04T10:33:19;100013.94;;;38.15;13.25
78485;BME280;67773;50.806;8.776;2023-06-04T10:35:50;100000.22;;;39.31;10.39
78485;BME280;67773;50.806;8.776;2023-06-04T10:38:16;100014.44;;;38.62;13.41
78485;BME280;67773;50.806;8.776;2023-06-04T10:40:44;100015.81;;;38.59;13.51
78485;BME280;67773;50.806;8.776;2023-06-04T10:43:13;100002.75;;;38.93;9.29
78485;BME280;67773;50.806;8.776;2023-06-04T10:45:40;100008.06;;;39.39;9.76
78485;BME280;67773;50.806;8.776;2023-06-04T10:48:07;100004.31;;;39.28;9.16
78485;BME280;67773;50.806;8.776;2023-06-04T10:50:34;100009.28;;;39.48;8.54
78485;BME280;67773;50.806;8.776;2023-06-04T10:53:00;100002.13;;;39.08;9.44
78485;BME280;67773;50.806;8.776;2023-06-04T10:55:29;99997.88;;;40.20;7.65
78485;BME280;67773;50.806;8.776;2023-06-04T10:57:57;100011.06;;;40.03;9.77
78485;BME280;67773;50.806;8.776;2023-06-04T11:03:01;100009.28;;;39.04;8.81
78485;BME280;67773;50.806;8.776;2023-06-04T11:08:06;100004.53;;;39.65;7.77
78485;BME280;67773;50.806;8.776;2023-06-04T11:10:36;100004.09;;;40.32;9.31
78485;BME280;67773;50.806;8.776;2023-06-04T11:13:03;100003.97;;;40.17;8.73
78485;BME280;67773;50.806;8.776;2023-06-04T11:18:04;99999.31;;;40.55;8.58
78485;BME280;67773;50.806;8.776;2023-06-04T11:20:30;100002.16;;;41.12;7.55
78485;BME280;67773;50.806;8.776;2023-06-04T11:22:57;99994.97;;;39.56;11.70
78485;BME280;67773;50.806;8.776;2023-06-04T11:25:26;99999.69;;;40.36;10.77
78485;BME280;67773;50.806;8.776;2023-06-04T11:27:54;99998.97;;;40.51;10.29
78485;BME280;67773;50.806;8.776;2023-06-04T11:30:21;99989.84;;;39.97;9.08
78485;BME280;67773;50.806;8.776;2023-06-04T11:32:46;99985.94;;;40.57;8.37
78485;BME280;67773;50.806;8.776;2023-06-04T11:35:12;99987.22;;;40.81;9.22
78485;BME280;67773;50.806;8.776;2023-06-04T11:37:38;99983.69;;;40.91;7.98
78485;BME280;67773;50.806;8.776;2023-06-04T11:40:17;99984.72;;;40.43;8.91
78485;BME280;67773;50.806;8.776;2023-06-04T11:42:44;99975.97;;;41.71;6.84
78485;BME280;67773;50.806;8.776;2023-06-04T11:45:12;99981.09;;;40.42;8.44
78485;BME280;67773;50.806;8.776;2023-06-04T11:47:38;99977.03;;;39.69;12.64
78485;BME280;67773;50.806;8.776;2023-06-04T11:50:03;99975.47;;;39.51;7.74
78485;BME280;67773;50.806;8.776;2023-06-04T11:52:29;99989.56;;;39.22;10.21
78485;BME280;67773;50.806;8.776;2023-06-04T11:54:54;99982.31;;;39.21;10.58
78485;BME280;67773;50.806;8.776;2023-06-04T11:57:21;99985.66;;;39.94;9.45
78485;BME280;67773;50.806;8.776;2023-06-04T11:59:47;99979.47;;;39.16;9.55
78485;BME280;67773;50.806;8.776;2023-06-04T12:02:12;99978.22;;;39.51;9.61
78485;BME280;67773;50.806;8.776;2023-06-04T12:04:37;99982.44;;;39.32;9.64
78485;BME280;67773;50.806;8.776;2023-06-04T12:07:03;99982.81;;;39.89;8.96
78485;BME280;67773;50.806;8.776;2023-06-04T12:09:31;99982.72;;;39.79;10.06
78485;BME280;67773;50.806;8.776;2023-06-04T12:12:09;99973.97;;;39.00;11.82
78485;BME280;67773;50.806;8.776;2023-06-04T12:14:34;99968.59;;;39.37;8.23
78485;BME280;67773;50.806;8.776;2023-06-04T12:17:02;99974.88;;;38.16;10.35
78485;BME280;67773;50.806;8.776;2023-06-04T12:19:30;99969.50;;;38.98;9.01
78485;BME280;67773;50.806;8.776;2023-06-04T12:22:04;99969.91;;;38.35;12.13
78485;BME280;67773;50.806;8.776;2023-06-04T12:24:34;99978.25;;;37.33;14.85
78485;BME280;67773;50.806;8.776;2023-06-04T12:27:05;99961.38;;;37.91;10.92
78485;BME280;67773;50.806;8.776;2023-06-04T12:29:32;99971.66;;;38.58;10.03
78485;BME280;67773;50.806;8.776;2023-06-04T12:32:05;99965.50;;;37.60;12.69
78485;BME280;67773;50.806;8.776;2023-06-04T12:34:33;99964.38;;;37.73;12.05
78485;BME280;67773;50.806;8.776;2023-06-04T12:36:58;99961.91;;;36.26;14.85
78485;BME280;67773;50.806;8.776;2023-06-04T12:39:23;99957.22;;;38.05;10.81
78485;BME280;67773;50.806;8.776;2023-06-04T12:41:49;99957.03;;;38.46;9.62
78485;BME280;67773;50.806;8.776;2023-06-04T12:44:14;99965.66;;;37.53;13.57
78485;BME280;67773;50.806;8.776;2023-06-04T12:46:40;99959.69;;;38.91;10.30
78485;BME280;67773;50.806;8.776;2023-06-04T12:49:05;99957.69;;;38.02;10.84
78485;BME280;67773;50.806;8.776;2023-06-04T12:51:31;99955.03;;;38.07;13.32
78485;BME280;67773;50.806;8.776;2023-06-04T12:53:57;99960.03;;;36.73;14.53
78485;BME280;67773;50.806;8.776;2023-06-04T12:56:22;99962.50;;;37.10;12.73
78485;BME280;67773;50.806;8.776;2023-06-04T12:58:48;99958.78;;;38.01;12.51
78485;BME280;67773;50.806;8.776;2023-06-04T13:01:14;99959.16;;;39.11;10.56
78485;BME280;67773;50.806;8.776;2023-06-04T13:03:40;99958.44;;;38.26;11.88
78485;BME280;67773;50.806;8.776;2023-06-04T13:06:06;99956.72;;;39.41;8.94